createdAt,value
2023-04-05T00:15:48.904Z,-3.10
2023-04-05T01:05:54.096Z,-3.50
2023-04-05T01:08:57.995Z,-3.60
2023-04-05T01:11:27.373Z,-3.60
2023-04-05T04:48:01.254Z,-3.10
2023-04-05T04:51:04.535Z,-3.00
2023-04-05T04:56:07.724Z,-2.90
2023-04-05T05:11:07.583Z,-2.80
2023-04-05T05:26:00.016Z,-2.50
2023-04-05T05:40:56.156Z,-2.10
2023-04-05T06:10:37.851Z,-0.20
2023-04-05T06:22:57.433Z,4.30
2023-04-05T06:25:25.816Z,4.30
2023-04-05T06:35:23.042Z,5.40
2023-04-05T06:40:19.995Z,5.20
2023-04-05T06:47:50.211Z,5.60
2023-04-05T06:57:42.469Z,7.50
2023-04-05T07:00:12.089Z,7.90
2023-04-05T07:02:39.699Z,7.40
2023-04-05T07:05:08.966Z,7.70
2023-04-05T07:07:41.482Z,8.10
2023-04-05T07:10:09.462Z,7.70
2023-04-05T07:12:37.336Z,7.00
2023-04-05T07:15:05.259Z,6.70
2023-04-05T07:17:33.043Z,6.80
2023-04-05T07:20:00.465Z,7.50
2023-04-05T07:22:27.744Z,8.00
2023-04-05T07:24:55.980Z,8.80
2023-04-05T07:27:23.322Z,8.80
2023-04-05T07:29:51.600Z,9.20
2023-04-05T07:34:48.222Z,9.40
2023-04-05T07:37:16.295Z,10.20
2023-04-05T07:39:44.737Z,11.10
2023-04-05T07:52:06.695Z,11.70
2023-04-05T07:54:34.530Z,11.40
2023-04-05T07:57:03.095Z,11.80
2023-04-05T07:59:30.573Z,12.00
2023-04-05T08:02:04.835Z,11.10
2023-04-05T08:04:40.012Z,10.90
2023-04-05T08:07:07.267Z,11.20
2023-04-05T08:09:36.219Z,10.90
2023-04-05T08:12:03.680Z,11.50
2023-04-05T08:14:31.308Z,12.10
2023-04-05T08:16:58.546Z,13.00
2023-04-05T08:19:26.105Z,13.40
2023-04-05T08:21:53.705Z,13.90
2023-04-05T08:24:21.641Z,13.00
2023-04-05T08:26:51.073Z,12.30
2023-04-05T08:29:18.508Z,12.00
2023-04-05T08:31:45.716Z,11.70
2023-04-05T08:34:13.295Z,9.80
2023-04-05T08:36:40.561Z,8.30
2023-04-05T08:39:08.150Z,8.00
2023-04-05T08:41:42.640Z,7.40
2023-04-05T08:44:11.139Z,6.90
2023-04-05T08:46:39.430Z,6.60
2023-04-05T08:49:08.982Z,6.40
2023-04-05T08:51:39.923Z,7.70
2023-04-05T08:54:07.849Z,8.80
2023-04-05T08:56:36.837Z,8.50
2023-04-05T08:59:11.761Z,8.30
2023-04-05T09:01:44.644Z,9.70
2023-04-05T09:04:23.899Z,11.60
2023-04-05T09:06:52.781Z,13.20
2023-04-05T09:09:21.629Z,13.30
2023-04-05T09:11:50.341Z,13.80
2023-04-05T09:14:19.660Z,14.00
2023-04-05T09:16:48.103Z,13.90
2023-04-05T09:19:16.364Z,14.40
2023-04-05T09:22:03.347Z,14.80
2023-04-05T09:24:42.237Z,15.40
2023-04-05T09:27:12.268Z,15.70
2023-04-05T09:29:42.641Z,16.30
2023-04-05T09:32:12.407Z,16.50
2023-04-05T09:34:42.241Z,16.70
2023-04-05T09:37:18.818Z,15.80
2023-04-05T09:39:52.386Z,14.50
2023-04-05T09:42:24.854Z,12.90
2023-04-05T09:45:02.612Z,11.80
2023-04-05T09:47:35.380Z,10.70
2023-04-05T09:50:17.010Z,10.40
2023-04-05T09:52:45.486Z,11.10
2023-04-05T09:55:14.200Z,10.40
2023-04-05T09:57:44.069Z,11.00
2023-04-05T10:00:22.605Z,11.60
2023-04-05T10:02:55.064Z,13.50
2023-04-05T10:05:29.704Z,14.50
2023-04-05T10:07:57.551Z,14.60
2023-04-05T10:10:27.576Z,14.50
2023-04-05T10:12:56.055Z,14.80
2023-04-05T10:15:26.348Z,15.40
2023-04-05T10:18:03.641Z,14.70
2023-04-05T10:20:39.314Z,14.60
2023-04-05T10:23:23.690Z,14.40
2023-04-05T10:25:54.853Z,14.60
2023-04-05T10:28:37.308Z,15.20
2023-04-05T10:31:21.043Z,15.20
2023-04-05T10:34:07.695Z,13.80
2023-04-05T10:37:00.903Z,13.90
2023-04-05T10:39:31.483Z,12.30
2023-04-05T10:42:22.023Z,12.00
2023-04-05T10:45:00.593Z,11.20
2023-04-05T10:47:39.135Z,10.30
2023-04-05T10:50:13.273Z,9.50
2023-04-05T10:52:42.501Z,11.10
2023-04-05T10:55:10.849Z,11.00
2023-04-05T10:57:39.549Z,11.20
2023-04-05T11:00:11.400Z,10.50
2023-04-05T11:02:39.764Z,9.40
2023-04-05T11:05:07.937Z,9.10
2023-04-05T11:07:50.184Z,10.70
2023-04-05T11:10:20.473Z,12.10
2023-04-05T11:12:56.460Z,12.80
2023-04-05T11:15:29.417Z,14.50
2023-04-05T11:18:12.166Z,15.80
2023-04-05T11:20:54.369Z,16.00
2023-04-05T11:23:25.772Z,16.60
2023-04-05T11:26:03.515Z,16.80
2023-04-05T11:28:37.933Z,17.40
2023-04-05T11:31:31.806Z,17.20
2023-04-05T11:34:00.919Z,15.40
2023-04-05T11:36:52.738Z,16.50
2023-04-05T11:39:23.993Z,15.50
2023-04-05T11:42:07.573Z,12.50
2023-04-05T11:44:49.386Z,11.20
2023-04-05T11:47:18.363Z,11.10
2023-04-05T11:49:51.198Z,10.20
2023-04-05T11:52:20.678Z,9.00
2023-04-05T11:57:23.427Z,8.30
2023-04-05T11:59:54.695Z,9.00
2023-04-05T12:02:22.620Z,9.40
2023-04-05T12:04:58.565Z,10.70
2023-04-05T12:07:29.826Z,10.80
2023-04-05T12:10:03.685Z,12.20
2023-04-05T12:12:39.620Z,11.90
2023-04-05T12:15:14.283Z,12.70
2023-04-05T12:17:50.281Z,13.60
2023-04-05T12:20:23.928Z,14.30
2023-04-05T12:22:54.095Z,15.10
2023-04-05T12:25:22.725Z,14.80
2023-04-05T12:27:53.491Z,14.70
2023-04-05T12:30:23.188Z,15.10
2023-04-05T12:32:52.313Z,16.50
2023-04-05T12:35:25.141Z,17.10
2023-04-05T12:37:52.850Z,16.80
2023-04-05T12:40:22.564Z,17.40
2023-04-05T12:42:50.670Z,17.80
2023-04-05T12:45:21.003Z,19.60
2023-04-05T12:48:00.674Z,17.90
2023-04-05T12:50:30.676Z,17.60
2023-04-05T12:52:59.144Z,17.50
2023-04-05T12:55:28.758Z,17.30
2023-04-05T12:57:59.768Z,17.00
2023-04-05T13:00:29.208Z,17.50
2023-04-05T13:02:58.928Z,18.60
2023-04-05T13:05:30.773Z,16.70
2023-04-05T13:07:58.866Z,15.90
2023-04-05T13:10:26.837Z,15.40
2023-04-05T13:12:54.356Z,15.90
2023-04-05T13:15:22.534Z,15.70
2023-04-05T13:17:50.951Z,15.90
2023-04-05T13:20:19.210Z,14.60
2023-04-05T13:22:47.305Z,13.90
2023-04-05T13:25:15.644Z,12.30
2023-04-05T13:27:43.571Z,12.50
2023-04-05T13:30:11.808Z,11.50
2023-04-05T13:32:39.459Z,11.20
2023-04-05T13:35:07.598Z,10.80
2023-04-05T13:37:35.120Z,11.20
2023-04-05T13:42:30.470Z,10.80
2023-04-05T13:44:58.156Z,9.50
2023-04-05T13:47:25.455Z,9.60
2023-04-05T13:52:20.723Z,9.20
2023-04-05T13:57:30.597Z,9.10
2023-04-05T14:02:27.474Z,8.40
2023-04-05T14:04:55.585Z,8.20
2023-04-05T14:07:23.849Z,8.40
2023-04-05T16:36:06.562Z,5.80
2023-04-05T18:12:46.339Z,3.00
2023-04-05T19:52:48.834Z,1.80
2023-04-05T19:55:37.404Z,1.70
2023-04-05T19:58:10.646Z,1.70
2023-04-05T20:00:55.936Z,1.70
2023-04-05T20:03:38.572Z,1.60
2023-04-05T20:06:08.955Z,1.20
2023-04-05T20:08:43.805Z,1.70
2023-04-05T20:11:16.268Z,1.70
2023-04-05T20:13:52.745Z,1.70
2023-04-05T20:16:29.259Z,1.60
2023-04-05T20:19:10.576Z,1.60
2023-04-05T20:24:10.067Z,3.70
2023-04-05T20:26:37.988Z,1.50
2023-04-05T20:29:10.018Z,1.20
2023-04-05T20:34:20.035Z,1.10
2023-04-05T20:36:50.218Z,1.00
2023-04-05T20:41:47.395Z,0.70
2023-04-05T21:04:06.877Z,0.10
2023-04-05T21:18:59.098Z,-0.40
2023-04-05T22:15:46.894Z,-1.20
2023-04-05T22:18:14.691Z,-1.20
2023-04-05T22:45:34.086Z,-1.70
2023-04-05T22:48:02.391Z,-1.60
2023-04-05T22:50:30.583Z,-1.40
2023-04-05T22:52:58.510Z,-2.00
2023-04-05T22:55:26.478Z,-1.70
2023-04-05T22:57:54.465Z,-1.60
2023-04-05T23:00:22.314Z,-1.60
2023-04-05T23:02:49.843Z,-1.60
2023-04-05T23:05:17.337Z,-1.30
2023-04-05T23:07:44.933Z,-1.60
2023-04-05T23:10:12.373Z,-2.00
2023-04-05T23:12:40.040Z,0.40
2023-04-05T23:15:07.611Z,-2.10
2023-04-05T23:17:35.260Z,-1.60
2023-04-05T23:20:05.953Z,-1.60
2023-04-05T23:22:36.177Z,-1.50
2023-04-05T23:25:04.666Z,-1.40
2023-04-05T23:27:32.885Z,-1.30
2023-04-05T23:30:00.304Z,-0.70
2023-04-05T23:57:07.367Z,-1.10
